Time;durP1;ratioP1;P1;durP2;ratioP2;P2;SDS_P1;SDS_P2;PMS_P1;PMS_P2;Temp;Humidity;BMP_temperature;BMP_pressure;BME280_temperature;BME280_humidity;BME280_pressure;Samples;Min_cycle;Max_cycle;Signal;HPM_P1;HPM_P2
2022/06/01 00:01:54;;;;;;;13.88;11.23;;;13.20;74.10;;;;;;5094231;28;20032;-73
2022/06/01 00:04:20;;;;;;;16.88;11.50;;;13.00;74.70;;;;;;5094188;28;20024;-73
2022/06/01 00:06:46;;;;;;;13.77;10.95;;;13.00;75.00;;;;;;5093114;28;20096;-73
2022/06/01 00:09:12;;;;;;;13.40;11.07;;;13.10;74.90;;;;;;5094039;28;20032;-72
2022/06/01 00:11:38;;;;;;;16.10;12.32;;;13.00;75.50;;;;;;5093944;28;20040;-73
2022/06/01 00:14:04;;;;;;;15.38;11.57;;;12.70;75.70;;;;;;5093932;28;20036;-72
2022/06/01 00:16:31;;;;;;;16.55;11.75;;;12.80;76.00;;;;;;5093943;28;20021;-73
2022/06/01 00:18:57;;;;;;;15.82;11.32;;;12.90;75.70;;;;;;5093886;28;20079;-72
2022/06/01 00:21:23;;;;;;;14.88;10.93;;;13.00;75.30;;;;;;5093839;28;20045;-72
2022/06/01 00:23:49;;;;;;;14.60;11.57;;;13.00;75.10;;;;;;5093801;28;20126;-73
2022/06/01 00:26:16;;;;;;;14.48;11.68;;;13.10;75.00;;;;;;5093881;28;20028;-72
2022/06/01 00:28:41;;;;;;;15.10;11.60;;;13.20;74.70;;;;;;5093492;28;20030;-73
2022/06/01 00:31:07;;;;;;;14.57;11.25;;;13.20;74.40;;;;;;5092680;28;20054;-73
2022/06/01 00:33:33;;;;;;;14.68;11.55;;;13.20;74.20;;;;;;5093714;28;20029;-72
2022/06/01 00:35:59;;;;;;;15.05;11.93;;;13.20;74.00;;;;;;5093413;28;20039;-72
2022/06/01 00:38:24;;;;;;;15.68;12.02;;;13.10;74.00;;;;;;5093544;28;20025;-72
2022/06/01 00:40:50;;;;;;;16.83;12.30;;;12.90;74.00;;;;;;5093501;28;20113;-72
2022/06/01 00:43:20;;;;;;;15.65;12.38;;;12.80;74.30;;;;;;5093606;28;20059;-73
2022/06/01 00:45:45;;;;;;;20.08;13.73;;;12.90;74.70;;;;;;5093549;28;20029;-72
2022/06/01 00:48:11;;;;;;;17.65;13.07;;;12.90;74.70;;;;;;5093400;28;20040;-72
2022/06/01 00:50:39;;;;;;;16.33;11.98;;;12.90;74.90;;;;;;5092219;28;20028;-72
2022/06/01 00:53:17;;;;;;;17.90;12.85;;;12.90;74.70;;;;;;5093570;28;20025;-72
2022/06/01 00:55:47;;;;;;;17.23;12.63;;;13.00;74.70;;;;;;5093387;28;20021;-72
2022/06/01 00:58:19;;;;;;;15.23;12.48;;;12.90;74.50;;;;;;5093465;28;20021;-72
2022/06/01 01:00:47;;;;;;;17.85;13.52;;;12.90;74.80;;;;;;5093350;28;20150;-72
2022/06/01 01:03:15;;;;;;;17.77;13.70;;;12.80;74.90;;;;;;5093362;28;20020;-73
2022/06/01 01:05:45;;;;;;;18.60;14.13;;;12.80;75.30;;;;;;5093267;28;20029;-73
2022/06/01 01:08:12;;;;;;;19.85;14.02;;;12.80;75.20;;;;;;5093289;28;20130;-72
2022/06/01 01:10:38;;;;;;;19.35;14.30;;;12.80;75.30;;;;;;5093133;28;20024;-73
2022/06/01 01:13:08;;;;;;;21.05;15.32;;;12.70;75.50;;;;;;5093176;28;20017;-72
2022/06/01 01:15:58;;;;;;;22.15;15.23;;;12.60;76.00;;;;;;5093184;28;20023;-72
2022/06/01 01:18:30;;;;;;;24.55;16.85;;;12.60;76.40;;;;;;5093182;28;20028;-72
2022/06/01 01:21:02;;;;;;;22.75;16.00;;;12.50;76.80;;;;;;5093118;28;20020;-72
2022/06/01 01:23:40;;;;;;;21.58;16.40;;;12.50;76.90;;;;;;5093045;28;20078;-72
2022/06/01 01:26:06;;;;;;;24.35;16.33;;;12.40;76.80;;;;;;5093174;28;20051;-72
2022/06/01 01:28:33;;;;;;;24.00;16.23;;;12.40;76.90;;;;;;5092962;28;20059;-72
2022/06/01 01:31:05;;;;;;;21.80;15.25;;;12.50;77.10;;;;;;5092936;28;20024;-72
2022/06/01 01:33:31;;;;;;;24.00;17.17;;;12.40;76.90;;;;;;5093033;28;20016;-73
2022/06/01 01:36:04;;;;;;;21.52;15.68;;;12.40;77.20;;;;;;5092958;28;20027;-73
2022/06/01 01:39:11;;;;;;;22.33;15.90;;;12.50;77.30;;;;;;5093037;28;20024;-72
2022/06/01 01:41:45;;;;;;;24.55;16.95;;;12.50;77.40;;;;;;5092920;28;20071;-73
2022/06/01 01:44:20;;;;;;;24.10;15.90;;;12.40;78.30;;;;;;5093041;28;20028;-72
2022/06/01 01:46:50;;;;;;;21.88;15.93;;;12.50;77.40;;;;;;5092832;28;20048;-73
2022/06/01 01:49:22;;;;;;;24.40;16.23;;;12.50;77.40;;;;;;5096767;28;20029;-72
2022/06/01 01:51:50;;;;;;;20.85;15.15;;;12.60;78.20;;;;;;5096722;28;20071;-73
2022/06/01 01:54:54;;;;;;;23.67;15.88;;;12.60;78.10;;;;;;5096807;28;20084;-73
2022/06/01 01:57:50;;;;;;;25.55;16.30;;;12.40;78.30;;;;;;5078680;28;20078;-73
2022/06/01 02:00:31;;;;;;;23.90;15.88;;;12.40;78.00;;;;;;5096694;28;20103;-72
2022/06/01 02:03:23;;;;;;;23.08;16.02;;;12.40;78.00;;;;;;5096655;28;20025;-73
2022/06/01 02:06:04;;;;;;;22.98;15.75;;;12.50;78.00;;;;;;5096543;28;20028;-73
2022/06/01 02:08:38;;;;;;;24.15;16.35;;;12.60;78.10;;;;;;5096526;28;20028;-72
2022/06/01 02:13:55;;;;;;;24.40;16.10;;;12.60;77.90;;;;;;5096515;28;20031;-72
2022/06/01 02:16:25;;;;;;;23.33;16.67;;;12.60;77.80;;;;;;5095217;28;20019;-73
2022/06/01 02:18:54;;;;;;;23.42;16.90;;;12.70;77.80;;;;;;5096241;28;20021;-73
2022/06/01 02:21:25;;;;;;;24.27;16.23;;;12.70;77.70;;;;;;5096276;28;20024;-72
2022/06/01 02:23:53;;;;;;;23.15;16.35;;;12.80;77.80;;;;;;5096177;28;20017;-72
2022/06/01 02:26:20;;;;;;;21.60;16.00;;;12.80;77.40;;;;;;5096082;28;20062;-73
2022/06/01 02:28:48;;;;;;;23.27;16.17;;;12.80;77.60;;;;;;5095917;28;20111;-72
2022/06/01 02:31:17;;;;;;;24.13;17.17;;;12.80;77.30;;;;;;5095931;28;20031;-72
2022/06/01 02:33:46;;;;;;;25.00;16.25;;;12.70;77.70;;;;;;5095947;28;20054;-73
2022/06/01 02:36:15;;;;;;;24.30;16.88;;;12.70;77.70;;;;;;5095943;28;20028;-73
2022/06/01 02:38:44;;;;;;;21.50;15.55;;;12.80;77.70;;;;;;5095872;28;20024;-72
2022/06/01 02:42:25;;;;;;;21.17;16.05;;;12.90;77.50;;;;;;5096034;28;20024;-72
2022/06/01 02:43:57;;;;;;;20.83;15.88;;;12.90;77.00;;;;;;5095626;28;20045;-72
2022/06/01 02:46:23;;;;;;;23.52;17.20;;;12.90;76.90;;;;;;5095717;28;20028;-72
2022/06/01 02:48:50;;;;;;;23.77;16.60;;;12.90;76.80;;;;;;5095703;28;20525;-72
2022/06/01 02:51:18;;;;;;;25.83;17.17;;;12.80;77.00;;;;;;5095384;28;20040;-73
2022/06/01 02:53:47;;;;;;;25.33;17.02;;;12.60;77.80;;;;;;5095589;28;20021;-72
2022/06/01 02:56:13;;;;;;;26.70;18.40;;;12.50;77.70;;;;;;5095507;28;20044;-73
2022/06/01 02:58:39;;;;;;;26.98;18.42;;;12.50;78.10;;;;;;5095461;28;20029;-72
2022/06/01 03:01:05;;;;;;;27.42;17.65;;;12.50;78.20;;;;;;5095451;28;20071;-73
2022/06/01 03:03:33;;;;;;;26.48;18.35;;;12.60;78.30;;;;;;5095429;28;20029;-72
2022/06/01 03:05:59;;;;;;;28.33;18.80;;;12.60;78.30;;;;;;5095365;28;20025;-72
2022/06/01 03:08:25;;;;;;;25.88;18.55;;;12.60;78.30;;;;;;5095285;28;20036;-73
2022/06/01 03:10:51;;;;;;;26.88;18.02;;;12.50;78.50;;;;;;5095297;28;20024;-72
2022/06/01 03:13:17;;;;;;;25.00;17.25;;;12.50;78.90;;;;;;5095224;28;20111;-72
2022/06/01 03:15:43;;;;;;;23.40;16.42;;;12.50;78.80;;;;;;5095192;28;20024;-72
2022/06/01 03:18:08;;;;;;;26.90;18.88;;;12.50;78.30;;;;;;5095069;28;20033;-72
2022/06/01 03:20:34;;;;;;;25.30;17.40;;;12.40;78.30;;;;;;5095032;28;20039;-72
2022/06/01 03:23:00;;;;;;;24.05;16.38;;;12.40;78.50;;;;;;5095021;28;20028;-73
2022/06/01 03:25:28;;;;;;;26.23;17.50;;;12.30;78.40;;;;;;5095028;28;20054;-72
2022/06/01 03:27:59;;;;;;;26.40;17.73;;;12.20;78.70;;;;;;5094830;28;20028;-73
2022/06/01 03:30:26;;;;;;;26.77;18.88;;;12.20;78.80;;;;;;5094841;28;20036;-72
2022/06/01 03:32:52;;;;;;;26.95;18.23;;;12.20;78.90;;;;;;5094800;28;20025;-72
2022/06/01 03:35:22;;;;;;;27.65;19.00;;;12.30;78.60;;;;;;5094791;28;20032;-72
2022/06/01 03:37:48;;;;;;;28.58;18.85;;;12.30;78.30;;;;;;5094695;28;20021;-72
2022/06/01 03:40:16;;;;;;;25.70;17.20;;;12.30;79.00;;;;;;5094790;28;20039;-73
2022/06/01 03:42:42;;;;;;;31.08;18.42;;;12.20;78.20;;;;;;5094761;28;20070;-73
2022/06/01 03:47:55;;;;;;;27.67;17.77;;;12.10;78.30;;;;;;5094734;28;20044;-73
2022/06/01 03:50:23;;;;;;;28.35;18.30;;;12.00;78.30;;;;;;5094367;28;20035;-73
2022/06/01 03:52:49;;;;;;;26.95;18.08;;;12.00;78.40;;;;;;5094359;28;20040;-72
2022/06/01 03:55:15;;;;;;;29.35;18.83;;;12.00;78.60;;;;;;5094349;28;20072;-73
2022/06/01 03:57:42;;;;;;;27.80;18.73;;;11.90;78.70;;;;;;5094342;28;20031;-73
2022/06/01 04:00:13;;;;;;;29.48;19.05;;;11.90;78.70;;;;;;5094247;28;20024;-73
2022/06/01 04:02:39;;;;;;;31.90;19.40;;;11.90;78.90;;;;;;5094139;28;20021;-73
2022/06/01 04:05:05;;;;;;;32.17;19.15;;;11.90;79.00;;;;;;5094295;28;20024;-73
2022/06/01 04:07:31;;;;;;;30.02;19.02;;;11.90;79.30;;;;;;5094129;28;20028;-73
2022/06/01 04:09:56;;;;;;;30.67;19.73;;;11.80;79.60;;;;;;5093513;28;20039;-72
2022/06/01 04:12:22;;;;;;;31.88;18.60;;;11.80;79.60;;;;;;5094003;28;20033;-72
2022/06/01 04:14:48;;;;;;;29.60;18.40;;;11.80;79.70;;;;;;5093954;28;20032;-72
2022/06/01 04:17:14;;;;;;;28.40;17.73;;;11.80;80.30;;;;;;5093918;28;20029;-73
2022/06/01 04:19:39;;;;;;;29.65;18.33;;;11.70;80.60;;;;;;5093986;28;20017;-73
2022/06/01 04:22:07;;;;;;;30.95;18.52;;;11.70;80.80;;;;;;5093985;28;20472;-72
2022/06/01 04:24:34;;;;;;;30.52;19.20;;;11.70;80.70;;;;;;5093817;28;20024;-72
2022/06/01 04:27:00;;;;;;;33.80;19.33;;;11.70;81.20;;;;;;5093727;28;20046;-72
2022/06/01 04:29:26;;;;;;;31.52;18.67;;;11.70;80.90;;;;;;5093652;28;20033;-72
2022/06/01 04:32:02;;;;;;;29.70;18.88;;;11.70;81.30;;;;;;5093731;28;20084;-72
2022/06/01 04:34:28;;;;;;;36.05;18.85;;;11.80;81.20;;;;;;5093679;28;20017;-72
2022/06/01 04:36:54;;;;;;;32.13;19.23;;;11.80;81.50;;;;;;5092669;28;20048;-73
2022/06/01 04:39:21;;;;;;;30.30;17.98;;;11.80;81.80;;;;;;5093557;28;20024;-73
2022/06/01 04:41:46;;;;;;;30.90;17.80;;;11.80;82.10;;;;;;5093511;28;20084;-72
2022/06/01 04:44:12;;;;;;;28.83;17.88;;;11.70;82.60;;;;;;5093481;28;20043;-72
2022/06/01 04:46:37;;;;;;;32.70;18.50;;;11.70;82.70;;;;;;5093461;28;20037;-73
2022/06/01 04:49:03;;;;;;;27.33;17.23;;;11.80;82.50;;;;;;5092400;28;20040;-73
2022/06/01 04:51:29;;;;;;;31.85;17.40;;;11.80;82.80;;;;;;5093124;28;20128;-73
2022/06/01 04:53:55;;;;;;;26.73;16.67;;;11.80;82.70;;;;;;5093364;28;20080;-73
2022/06/01 04:56:21;;;;;;;30.23;17.30;;;11.90;82.80;;;;;;5093417;28;20368;-73
2022/06/01 04:58:46;;;;;;;27.60;17.25;;;11.90;82.60;;;;;;5093320;28;20024;-73
2022/06/01 05:01:12;;;;;;;29.23;18.25;;;11.90;82.90;;;;;;5093280;28;20039;-73
2022/06/01 05:03:37;;;;;;;29.77;17.13;;;11.90;83.20;;;;;;5093204;28;20040;-73
2022/06/01 05:06:03;;;;;;;30.40;17.35;;;12.00;82.90;;;;;;5092339;28;20035;-73
2022/06/01 05:08:29;;;;;;;29.33;17.85;;;12.00;83.10;;;;;;5093191;28;20116;-74
2022/06/01 05:10:54;;;;;;;29.48;16.75;;;12.00;83.40;;;;;;5093117;28;20080;-73
2022/06/01 05:13:21;;;;;;;28.13;16.88;;;12.00;83.50;;;;;;5093139;28;20024;-73
2022/06/01 05:15:52;;;;;;;26.85;16.75;;;12.00;83.50;;;;;;5093164;28;20024;-73
2022/06/01 05:18:18;;;;;;;27.05;16.75;;;12.00;83.60;;;;;;5093293;28;20017;-73
2022/06/01 05:20:44;;;;;;;29.13;17.63;;;12.00;83.70;;;;;;5093095;28;20025;-73
2022/06/01 05:23:09;;;;;;;28.77;17.77;;;12.10;83.50;;;;;;5094400;28;20028;-73
2022/06/01 05:25:35;;;;;;;27.13;16.83;;;12.10;84.00;;;;;;5097232;28;20048;-73
2022/06/01 05:28:01;;;;;;;30.95;17.05;;;12.10;83.50;;;;;;5097123;28;20178;-73
2022/06/01 05:30:27;;;;;;;27.25;17.08;;;12.10;84.20;;;;;;5097054;28;20024;-73
2022/06/01 05:32:52;;;;;;;29.55;17.63;;;12.10;84.40;;;;;;5097066;28;20039;-73
2022/06/01 05:35:19;;;;;;;27.35;17.10;;;12.10;85.10;;;;;;5097035;28;20534;-73
2022/06/01 05:37:45;;;;;;;29.35;17.83;;;12.10;84.90;;;;;;5097032;28;20029;-73
2022/06/01 05:40:11;;;;;;;28.27;16.60;;;12.20;84.70;;;;;;5096997;28;20040;-73
2022/06/01 05:42:36;;;;;;;26.27;16.48;;;12.20;84.40;;;;;;5096929;28;20020;-73
2022/06/01 05:45:03;;;;;;;29.60;17.40;;;12.20;84.50;;;;;;5095775;28;20148;-73
2022/06/01 05:47:28;;;;;;;28.02;17.05;;;12.20;84.90;;;;;;5096830;28;20044;-73
2022/06/01 05:49:54;;;;;;;27.65;15.63;;;12.30;85.20;;;;;;5096710;28;20035;-72
2022/06/01 05:52:20;;;;;;;28.98;16.40;;;12.30;85.20;;;;;;5096661;28;20048;-73
2022/06/01 05:54:46;;;;;;;25.85;16.75;;;12.30;85.00;;;;;;5096659;28;20024;-74
2022/06/01 05:57:12;;;;;;;26.80;16.70;;;12.30;84.90;;;;;;5096737;28;20029;-73
2022/06/01 05:59:38;;;;;;;28.27;15.50;;;12.30;84.60;;;;;;5096606;28;20023;-73
2022/06/01 06:02:04;;;;;;;28.02;16.23;;;12.30;85.90;;;;;;5096553;28;20040;-73
2022/06/01 06:04:30;;;;;;;26.95;15.68;;;12.30;85.50;;;;;;5096488;28;20080;-73
2022/06/01 06:06:56;;;;;;;28.70;16.17;;;12.30;85.70;;;;;;5096391;28;20035;-73
2022/06/01 06:09:24;;;;;;;27.42;16.17;;;12.40;85.20;;;;;;5096419;28;20054;-73
2022/06/01 06:11:51;;;;;;;29.38;16.40;;;12.40;85.20;;;;;;5096215;28;20039;-73
2022/06/01 06:14:18;;;;;;;23.13;15.68;;;12.40;86.40;;;;;;5096335;28;20055;-73
2022/06/01 06:16:45;;;;;;;26.13;16.42;;;12.50;85.50;;;;;;5096262;28;20025;-73
2022/06/01 06:19:12;;;;;;;27.38;14.70;;;12.60;84.90;;;;;;5096209;28;20025;-73
2022/06/01 06:21:41;;;;;;;24.98;15.27;;;12.60;85.10;;;;;;5096054;28;20028;-72
2022/06/01 06:24:12;;;;;;;27.30;15.60;;;12.60;85.00;;;;;;5096243;28;20359;-72
2022/06/01 06:26:42;;;;;;;24.60;15.85;;;12.70;84.80;;;;;;5096051;28;20029;-74
2022/06/01 06:29:09;;;;;;;28.30;16.67;;;12.70;84.70;;;;;;5095917;28;20088;-73
2022/06/01 06:31:36;;;;;;;24.38;14.13;;;12.80;84.40;;;;;;5096025;28;20025;-73
2022/06/01 06:34:02;;;;;;;28.05;15.75;;;12.90;84.20;;;;;;5095653;28;20036;-73
2022/06/01 06:36:28;;;;;;;25.75;15.95;;;13.00;84.10;;;;;;5095787;28;20055;-73
2022/06/01 06:38:53;;;;;;;28.15;16.63;;;13.10;84.00;;;;;;5095847;28;20016;-73
2022/06/01 06:41:21;;;;;;;25.45;15.00;;;13.20;84.80;;;;;;5095970;28;20036;-72
2022/06/01 06:43:47;;;;;;;25.90;14.88;;;13.20;85.10;;;;;;5095808;28;20032;-72
2022/06/01 06:46:18;;;;;;;22.98;14.50;;;13.30;84.10;;;;;;5095747;28;20037;-72
2022/06/01 06:48:48;;;;;;;25.05;14.65;;;13.40;83.70;;;;;;5094770;28;20044;-72
2022/06/01 06:51:19;;;;;;;20.90;14.07;;;13.50;83.60;;;;;;5095383;28;20048;-72
2022/06/01 06:53:45;;;;;;;21.48;13.35;;;13.60;83.30;;;;;;5078446;28;20060;-72
2022/06/01 06:56:12;;;;;;;22.42;13.65;;;13.60;82.80;;;;;;5095578;28;20048;-72
2022/06/01 06:58:37;;;;;;;20.70;13.48;;;13.60;82.90;;;;;;5095628;28;20044;-73
2022/06/01 07:01:04;;;;;;;20.73;12.75;;;13.70;83.00;;;;;;5095485;28;20044;-72
2022/06/01 07:03:29;;;;;;;21.58;12.52;;;13.70;82.80;;;;;;5094394;28;20040;-73
2022/06/01 07:06:12;;;;;;;22.02;13.18;;;13.70;82.80;;;;;;5095398;28;20032;-72
2022/06/01 07:08:43;;;;;;;20.27;12.00;;;13.70;83.80;;;;;;5095509;28;20043;-72
2022/06/01 07:11:09;;;;;;;20.65;12.55;;;13.80;83.50;;;;;;5095240;28;20044;-72
2022/06/01 07:13:36;;;;;;;18.60;11.68;;;13.80;83.00;;;;;;5095239;28;20031;-72
2022/06/01 07:16:02;;;;;;;21.02;12.57;;;13.90;82.50;;;;;;5094262;28;20028;-72
2022/06/01 07:18:29;;;;;;;19.48;11.20;;;13.90;82.10;;;;;;5095138;28;20031;-72
2022/06/01 07:20:54;;;;;;;19.10;9.57;;;14.00;82.40;;;;;;5095115;28;20032;-72
2022/06/01 07:23:20;;;;;;;15.55;9.90;;;14.00;81.40;;;;;;5095044;28;20020;-71
2022/06/01 07:25:45;;;;;;;18.10;10.48;;;14.00;81.90;;;;;;5095019;28;20051;-72
2022/06/01 07:28:11;;;;;;;16.85;10.15;;;14.10;81.20;;;;;;5094866;28;20032;-72
2022/06/01 07:30:37;;;;;;;15.15;9.38;;;14.20;81.10;;;;;;5094794;28;20032;-71
2022/06/01 07:33:02;;;;;;;12.52;7.22;;;14.30;80.40;;;;;;5093811;28;20036;-72
2022/06/01 07:35:28;;;;;;;11.20;7.53;;;14.30;80.30;;;;;;5094782;28;20087;-73
2022/06/01 07:43:23;;;;;;;11.48;7.20;;;14.60;79.20;;;;;;5094775;28;20093;-73
2022/06/01 07:45:49;;;;;;;14.27;9.48;;;14.60;79.30;;;;;;5093753;28;20033;-72
2022/06/01 07:48:17;;;;;;;14.20;7.78;;;14.70;78.90;;;;;;5094528;28;20363;-73
2022/06/01 07:50:44;;;;;;;15.80;8.05;;;14.90;78.90;;;;;;5094371;28;20106;-72
2022/06/01 07:53:10;;;;;;;11.20;7.28;;;15.00;78.20;;;;;;5093155;28;20045;-72
2022/06/01 07:55:37;;;;;;;10.27;6.88;;;15.10;76.30;;;;;;5094377;28;20029;-71
2022/06/01 07:58:03;;;;;;;9.65;6.05;;;15.10;76.40;;;;;;5094336;28;20035;-71
2022/06/01 08:00:30;;;;;;;9.55;6.35;;;15.10;74.60;;;;;;5093315;28;20036;-72
2022/06/01 08:02:56;;;;;;;13.10;7.20;;;15.00;74.40;;;;;;5094259;28;20070;-72
2022/06/01 08:05:22;;;;;;;10.63;7.30;;;15.10;74.50;;;;;;5094212;28;20024;-73
2022/06/01 08:07:48;;;;;;;9.05;6.80;;;15.10;74.60;;;;;;5094113;28;20092;-71
2022/06/01 08:10:18;;;;;;;8.20;6.10;;;15.20;74.80;;;;;;5094022;28;20032;-72
2022/06/01 08:15:28;;;;;;;9.45;6.07;;;15.30;72.80;;;;;;5094000;28;20036;-72
2022/06/01 08:17:55;;;;;;;7.80;6.22;;;15.30;72.50;;;;;;5093983;28;20042;-72
2022/06/01 08:20:21;;;;;;;12.55;7.25;;;15.30;73.30;;;;;;5093892;28;20029;-72
2022/06/01 08:22:47;;;;;;;11.52;6.40;;;15.40;72.00;;;;;;5093816;28;20105;-72
2022/06/01 08:25:18;;;;;;;8.68;6.15;;;15.50;72.00;;;;;;5093814;28;20036;-72
2022/06/01 08:27:45;;;;;;;8.02;5.40;;;15.60;70.90;;;;;;5093679;28;20074;-72
2022/06/01 08:30:12;;;;;;;8.75;5.70;;;15.50;71.20;;;;;;5094110;28;20021;-72
2022/06/01 08:32:39;;;;;;;87.95;39.95;;;15.40;70.00;;;;;;5093927;28;20028;-71
2022/06/01 08:35:13;;;;;;;38.60;19.33;;;15.40;70.20;;;;;;5092996;28;20045;-73
2022/06/01 08:37:39;;;;;;;8.20;6.05;;;15.40;71.00;;;;;;5093760;28;20024;-70
2022/06/01 08:40:06;;;;;;;12.13;6.32;;;15.30;70.60;;;;;;5093565;28;20051;-71
2022/06/01 08:42:33;;;;;;;9.93;6.68;;;15.40;71.10;;;;;;5093536;28;20033;-71
2022/06/01 08:45:04;;;;;;;9.32;6.70;;;15.50;71.90;;;;;;5093521;28;20021;-71
2022/06/01 08:47:38;;;;;;;9.18;6.55;;;15.50;71.30;;;;;;5093413;28;20029;-71
2022/06/01 08:50:15;;;;;;;10.65;6.68;;;15.60;71.00;;;;;;5093447;28;20025;-71
2022/06/01 08:52:41;;;;;;;9.05;6.32;;;15.70;70.00;;;;;;5093230;28;20045;-71
2022/06/01 08:55:07;;;;;;;8.13;6.03;;;15.90;70.80;;;;;;5093359;28;20028;-71
2022/06/01 08:58:14;;;;;;;7.68;6.30;;;16.00;66.70;;;;;;5093229;28;20029;-71
2022/06/01 09:01:03;;;;;;;9.80;6.65;;;16.00;67.50;;;;;;5093371;28;20524;-71
2022/06/01 09:04:07;;;;;;;9.50;6.55;;;15.90;67.90;;;;;;5093183;28;20054;-72
2022/06/01 09:07:23;;;;;;;8.80;6.28;;;15.90;67.70;;;;;;5031838;28;20030;-71
2022/06/01 09:10:11;;;;;;;11.60;7.50;;;15.70;66.10;;;;;;5031825;28;20022;-72
2022/06/01 09:12:38;;;;;;;11.95;7.30;;;15.70;67.90;;;;;;5093586;28;20023;-73
2022/06/01 09:15:21;;;;;;;10.02;7.30;;;15.50;68.60;;;;;;5093438;28;20031;-74
2022/06/01 09:23:22;;;;;;;10.98;8.07;;;15.40;69.90;;;;;;5093357;28;20043;-72
2022/06/01 09:25:54;;;;;;;10.10;6.88;;;15.40;67.70;;;;;;5093086;28;20021;-71
2022/06/01 09:28:22;;;;;;;;;;;15.40;68.10;;;;;;5093409;28;20024;-71
2022/06/01 09:31:14;;;;;;;12.32;7.68;;;15.40;68.40;;;;;;5092996;28;19909;-72
2022/06/01 09:33:39;;;;;;;13.63;8.13;;;15.50;69.20;;;;;;5093230;28;20032;-72
2022/06/01 09:36:08;;;;;;;10.90;7.55;;;15.70;68.80;;;;;;5092983;28;20044;-72
2022/06/01 09:38:41;;;;;;;10.18;7.10;;;15.90;68.00;;;;;;5092954;28;20068;-72
2022/06/01 09:41:12;;;;;;;10.82;7.30;;;16.00;67.40;;;;;;5093078;28;20024;-72
2022/06/01 09:43:40;;;;;;;7.57;6.00;;;16.00;68.60;;;;;;5092826;28;20028;-72
2022/06/01 09:46:08;;;;;;;8.05;6.28;;;16.00;65.80;;;;;;5093004;28;20032;-72
2022/06/01 09:48:37;;;;;;;7.80;6.55;;;15.90;66.20;;;;;;5092852;28;20025;-72
2022/06/01 09:51:08;;;;;;;7.78;6.60;;;15.90;66.40;;;;;;5092774;28;20032;-72
2022/06/01 09:54:24;;;;;;;9.45;6.90;;;15.80;66.90;;;;;;5092673;28;20045;-71
2022/06/01 09:56:50;;;;;;;7.53;6.20;;;15.70;67.50;;;;;;5092998;28;20025;-72
2022/06/01 10:08:18;;;;;;;18.95;7.78;;;15.20;72.40;;;;;;5093414;28;20044;-72
2022/06/01 10:11:04;;;;;;;8.45;4.57;;;15.00;73.20;;;;;;5095792;28;20052;-72
2022/06/01 10:13:52;;;;;;;7.82;4.45;;;14.70;72.80;;;;;;5096324;28;20012;-71
2022/06/01 10:16:24;;;;;;;6.85;4.65;;;14.40;73.40;;;;;;5096345;28;20024;-72
2022/06/01 10:18:52;;;;;;;6.93;5.05;;;14.40;74.30;;;;;;5096431;28;20076;-72
2022/06/01 10:21:24;;;;;;;8.50;5.35;;;14.50;75.00;;;;;;5096187;28;20055;-72
2022/06/01 10:23:59;;;;;;;5.20;4.17;;;14.60;75.70;;;;;;5096258;28;20040;-72
2022/06/01 10:26:36;;;;;;;7.03;4.68;;;14.70;75.70;;;;;;5096210;28;20262;-72
2022/06/01 10:29:15;;;;;;;6.85;4.60;;;14.80;76.00;;;;;;5096128;28;20035;-72
2022/06/01 10:31:48;;;;;;;6.38;4.60;;;14.90;75.80;;;;;;5096107;28;20059;-72
2022/06/01 10:34:20;;;;;;;4.75;4.10;;;15.00;75.80;;;;;;5095962;28;20025;-72
2022/06/01 10:36:57;;;;;;;6.18;3.90;;;15.10;75.90;;;;;;5095993;28;20020;-72
2022/06/01 10:39:47;;;;;;;5.68;3.88;;;15.10;75.50;;;;;;5095931;28;20020;-72
2022/06/01 10:42:17;;;;;;;5.97;4.15;;;15.10;76.40;;;;;;5095926;28;20021;-72
2022/06/01 10:45:02;;;;;;;5.38;4.53;;;15.00;75.70;;;;;;5095995;28;20051;-72
2022/06/01 10:48:09;;;;;;;8.40;5.32;;;15.00;75.40;;;;;;5095778;28;20048;-72
2022/06/01 10:51:09;;;;;;;6.55;5.03;;;15.00;76.00;;;;;;5095622;28;20463;-72
2022/06/01 10:54:12;;;;;;;7.80;5.72;;;14.80;75.90;;;;;;5089814;28;20040;-72
2022/06/01 10:56:39;;;;;;;8.32;6.80;;;14.70;77.80;;;;;;5094566;28;20096;-72
2022/06/01 10:59:09;;;;;;;7.63;6.00;;;14.70;77.70;;;;;;5094753;28;20032;-72
2022/06/01 11:02:11;;;;;;;10.15;6.30;;;14.50;78.10;;;;;;5095516;28;20036;-72
2022/06/01 11:05:09;;;;;;;7.13;5.45;;;14.40;79.40;;;;;;5095556;28;20020;-72
2022/06/01 11:08:10;;;;;;;7.20;4.72;;;14.30;78.10;;;;;;5095584;28;20031;-72
2022/06/01 11:11:00;;;;;;;6.07;4.80;;;14.20;78.00;;;;;;5095271;28;20020;-72
2022/06/01 11:13:52;;;;;;;5.65;4.65;;;14.20;78.60;;;;;;5095342;28;20028;-72
2022/06/01 11:16:40;;;;;;;5.80;4.50;;;14.30;78.80;;;;;;5095292;28;20025;-72
2022/06/01 11:19:34;;;;;;;6.43;4.95;;;14.30;78.20;;;;;;5094936;28;20032;-72
2022/06/01 11:22:05;;;;;;;6.30;4.97;;;14.40;79.60;;;;;;5094727;28;20360;-72
2022/06/01 11:24:47;;;;;;;7.97;5.80;;;14.30;76.40;;;;;;5095158;28;20100;-74
2022/06/01 11:27:33;;;;;;;7.80;6.45;;;14.40;77.80;;;;;;5095061;28;20270;-73
2022/06/01 11:29:58;;;;;;;8.27;5.97;;;14.40;78.80;;;;;;5094837;28;20042;-73
2022/06/01 11:32:40;;;;;;;8.05;6.05;;;14.50;78.60;;;;;;5094882;28;20029;-73
2022/06/01 11:35:28;;;;;;;7.90;6.53;;;14.60;78.90;;;;;;5094899;28;20021;-73
2022/06/01 11:38:07;;;;;;;8.98;6.97;;;14.60;79.10;;;;;;5084796;28;20036;-73
2022/06/01 11:40:46;;;;;;;8.77;6.70;;;14.70;79.30;;;;;;5094877;28;20021;-73
2022/06/01 11:43:29;;;;;;;10.35;7.47;;;14.70;76.60;;;;;;5094809;28;20027;-73
2022/06/01 11:46:02;;;;;;;9.48;7.43;;;14.80;77.20;;;;;;5094674;28;20047;-73
2022/06/01 11:48:36;;;;;;;9.55;7.75;;;15.00;77.40;;;;;;5094751;28;20463;-73
2022/06/01 11:51:01;;;;;;;9.60;6.80;;;15.20;76.80;;;;;;5094509;28;20024;-73
2022/06/01 11:54:01;;;;;;;9.57;7.30;;;15.40;75.30;;;;;;5094308;28;20048;-73
2022/06/01 11:56:30;;;;;;;8.48;7.13;;;15.50;75.30;;;;;;5094442;28;20023;-73
2022/06/01 11:59:15;;;;;;;10.05;7.72;;;15.60;72.90;;;;;;5094352;28;20080;-73
2022/06/01 12:01:58;;;;;;;9.88;7.13;;;15.70;74.00;;;;;;5094455;28;20024;-74
2022/06/01 12:04:32;;;;;;;10.48;7.53;;;15.70;74.40;;;;;;5094290;28;20088;-73
2022/06/01 12:07:21;;;;;;;11.13;8.52;;;15.80;73.30;;;;;;5094269;28;20031;-73
2022/06/01 12:09:50;;;;;;;11.70;7.68;;;15.90;73.70;;;;;;5094084;28;20028;-73
2022/06/01 12:12:39;;;;;;;9.35;7.25;;;16.00;73.50;;;;;;5094057;28;20027;-73
2022/06/01 12:15:24;;;;;;;9.52;6.68;;;16.10;73.50;;;;;;5065120;28;20033;-73
2022/06/01 12:18:19;;;;;;;6.95;4.90;;;16.30;73.10;;;;;;5094037;28;20051;-73
2022/06/01 12:20:47;;;;;;;5.43;4.10;;;16.50;71.00;;;;;;5093953;28;20028;-73
2022/06/01 12:28:56;;;;;;;6.13;4.15;;;17.00;66.80;;;;;;5093973;28;20105;-73
2022/06/01 12:31:26;;;;;;;5.28;3.50;;;17.00;65.00;;;;;;5093467;28;20029;-73
2022/06/01 12:34:03;;;;;;;5.30;3.42;;;17.30;67.80;;;;;;5093714;28;20035;-73
2022/06/01 12:36:35;;;;;;;4.10;3.20;;;17.50;67.20;;;;;;5093660;28;20023;-73
2022/06/01 12:39:10;;;;;;;5.30;3.80;;;17.60;64.60;;;;;;5093826;28;20028;-73
2022/06/01 12:41:39;;;;;;;4.85;3.65;;;17.50;63.20;;;;;;5093628;28;20035;-73
2022/06/01 12:44:08;;;;;;;4.82;3.38;;;17.40;63.40;;;;;;5093531;28;20032;-73
2022/06/01 12:46:41;;;;;;;4.68;3.85;;;17.40;62.60;;;;;;5092480;28;20059;-73
2022/06/01 12:49:25;;;;;;;;;;;17.30;63.90;;;;;;5093915;28;20039;-73
2022/06/01 12:51:55;;;;;;;4.57;3.53;;;17.20;63.90;;;;;;5093208;28;19909;-73
2022/06/01 12:54:25;;;;;;;7.72;4.10;;;17.00;63.90;;;;;;5093479;28;20051;-73
2022/06/01 12:56:51;;;;;;;4.65;3.50;;;16.90;64.80;;;;;;5093407;28;20025;-73
2022/06/01 12:59:18;;;;;;;4.65;3.10;;;16.70;64.20;;;;;;5093400;28;20024;-73
2022/06/01 13:01:48;;;;;;;3.65;2.50;;;16.60;63.10;;;;;;5093356;28;20039;-73
2022/06/01 13:04:24;;;;;;;4.82;2.58;;;16.60;62.60;;;;;;5093360;28;20032;-73
2022/06/01 13:06:50;;;;;;;3.78;2.85;;;16.60;62.00;;;;;;5093324;28;20035;-73
2022/06/01 13:09:28;;;;;;;3.78;2.95;;;16.60;64.90;;;;;;5093244;28;20021;-73
2022/06/01 13:12:02;;;;;;;2.20;1.67;;;16.70;65.10;;;;;;5093176;28;20024;-72
2022/06/01 13:14:31;;;;;;;1.90;1.70;;;16.80;63.20;;;;;;5093307;28;20025;-73
2022/06/01 13:17:08;;;;;;;2.50;1.75;;;17.10;62.60;;;;;;5093152;28;20073;-73
2022/06/01 13:19:33;;;;;;;2.97;1.98;;;17.30;60.70;;;;;;5093210;28;20032;-73
2022/06/01 13:22:08;;;;;;;1.20;1.10;;;17.30;60.30;;;;;;5093245;28;20029;-73
2022/06/01 13:24:43;;;;;;;1.20;1.10;;;17.40;59.10;;;;;;5093117;28;20031;-73
2022/06/01 13:27:09;;;;;;;1.52;1.20;;;17.50;57.60;;;;;;5093165;28;20051;-73
2022/06/01 13:29:44;;;;;;;1.70;1.15;;;17.70;58.00;;;;;;5093002;28;20035;-73
2022/06/01 13:32:12;;;;;;;2.35;1.17;;;17.90;57.70;;;;;;5093196;28;20475;-73